Station Historical Data
Daily Summary for January 31, 2017 Units:  English    Metric   Both
Next Day »
Daily Weekly Monthly Yearly Custom
  High: Low: Average:
Temperature: 60.2 °F 43.2 °F 49.4 °F
Dew Point: 41.5 °F 27.7 °F 33.7 °F
Humidity: 71% 34% 55%
Wind Speed: 18.0mph 0.0mph 3.2mph
Wind Gust: 21.0mph - -
Wind- - ESE
Pressure: 30.24 in 30.10 in -
Precipitation: 0.00 in    
Historical Graphs
 
 
Tabular Data for January 31, 2017
Time Temperature Dew Point Pressure Wind Wind Speed Wind Gust Humidity Rainfall Rate (Hourly) solar Conditions
00:01 46.0 °F 32.5 °F 30.24 in East 1.0 mph 15.0 mph 59% 0.00 in 0.00 W/m2
00:06 46.0 °F 32.5 °F 30.24 in Calm   8.0 mph 59% 0.00 in 0.00 W/m2
00:11 46.1 °F 33.0 °F 30.24 in Calm   12.0 mph 60% 0.00 in 0.00 W/m2
00:16 46.0 °F 32.9 °F 30.24 in Calm   19.0 mph 60% 0.00 in 0.00 W/m2
00:21 46.0 °F 33.3 °F 30.24 in East 6.0 mph 12.0 mph 61% 0.00 in 0.00 W/m2
00:26 45.9 °F 32.0 °F 30.23 in East 4.0 mph 5.0 mph 58% 0.00 in 0.00 W/m2
00:31 45.9 °F 32.4 °F 30.23 in East 5.0 mph 8.0 mph 59% 0.00 in 0.00 W/m2
00:36 45.9 °F 32.4 °F 30.23 in Calm   16.0 mph 59% 0.00 in 0.00 W/m2
00:41 46.0 °F 32.1 °F 30.23 in East 5.0 mph 19.0 mph 58% 0.00 in 0.00 W/m2
00:46 46.1 °F 31.3 °F 30.23 in ESE 2.0 mph 16.0 mph 56% 0.00 in 0.00 W/m2
00:51 46.3 °F 32.3 °F 30.23 in Calm   18.0 mph 58% 0.00 in 0.00 W/m2
00:56 46.4 °F 32.0 °F 30.23 in ESE 15.0 mph 18.0 mph 57% 0.00 in 0.00 W/m2
01:01 46.4 °F 32.0 °F 30.23 in East 11.0 mph 19.0 mph 57% 0.00 in 0.00 W/m2
01:06 46.5 °F 31.7 °F 30.23 in East 6.0 mph 6.0 mph 56% 0.00 in 0.00 W/m2
01:11 46.5 °F 32.1 °F 30.22 in East 13.0 mph 19.0 mph 57% 0.00 in 0.00 W/m2
01:16 46.4 °F 32.0 °F 30.22 in ESE 8.0 mph 21.0 mph 57% 0.00 in 0.00 W/m2
01:21 46.3 °F 31.0 °F 30.23 in ESE 11.0 mph 18.0 mph 55% 0.00 in 0.00 W/m2
01:26 46.3 °F 31.5 °F 30.23 in East 4.0 mph 4.0 mph 56% 0.00 in 0.00 W/m2
01:31 46.2 °F 30.9 °F 30.22 in East 6.0 mph 18.0 mph 55% 0.00 in 0.00 W/m2
01:36 46.2 °F 31.4 °F 30.22 in ESE 2.0 mph 17.0 mph 56% 0.00 in 0.00 W/m2
01:41 46.1 °F 31.3 °F 30.22 in East 12.0 mph 12.0 mph 56% 0.00 in 0.00 W/m2
01:46 46.1 °F 30.9 °F 30.22 in ENE 4.0 mph 19.0 mph 55% 0.00 in 0.00 W/m2
01:51 46.0 °F 31.2 °F 30.22 in East 4.0 mph 16.0 mph 56% 0.00 in 0.00 W/m2
01:56 45.9 °F 30.7 °F 30.22 in ESE 6.0 mph 18.0 mph 55% 0.00 in 0.00 W/m2
02:01 45.8 °F 30.1 °F 30.22 in East 15.0 mph 19.0 mph 54% 0.00 in 0.00 W/m2
02:06 45.8 °F 30.6 °F 30.22 in ESE 8.0 mph 8.0 mph 55% 0.00 in 0.00 W/m2
02:11 45.8 °F 30.6 °F 30.23 in East 12.0 mph 15.0 mph 55% 0.00 in 0.00 W/m2
02:16 45.8 °F 31.0 °F 30.23 in ESE 14.0 mph 17.0 mph 56% 0.00 in 0.00 W/m2
02:21 45.6 °F 30.8 °F 30.23 in ESE 9.0 mph 9.0 mph 56% 0.00 in 0.00 W/m2
02:26 45.6 °F 30.4 °F 30.23 in SE 6.0 mph 14.0 mph 55% 0.00 in 0.00 W/m2
02:31 45.6 °F 30.4 °F 30.23 in ESE 5.0 mph 13.0 mph 55% 0.00 in 0.00 W/m2
02:36 45.5 °F 29.4 °F 30.23 in East 13.0 mph 14.0 mph 53% 0.00 in 0.00 W/m2
02:41 45.5 °F 30.3 °F 30.23 in Calm   13.0 mph 55% 0.00 in 0.00 W/m2
02:46 45.4 °F 30.2 °F 30.23 in Calm   15.0 mph 55% 0.00 in 0.00 W/m2
02:51 45.4 °F 30.6 °F 30.23 in ESE 1.0 mph 12.0 mph 56% 0.00 in 0.00 W/m2
02:56 45.2 °F 30.5 °F 30.23 in Calm   13.0 mph 56% 0.00 in 0.00 W/m2
03:01 45.1 °F 29.9 °F 30.23 in Calm   13.0 mph 55% 0.00 in 0.00 W/m2
03:06 45.0 °F 30.3 °F 30.22 in East 1.0 mph 2.0 mph 56% 0.00 in 0.00 W/m2
03:11 44.9 °F 30.6 °F 30.22 in ESE 9.0 mph 17.0 mph 57% 0.00 in 0.00 W/m2
03:16 44.9 °F 30.2 °F 30.22 in ESE 13.0 mph 14.0 mph 56% 0.00 in 0.00 W/m2
03:21 44.7 °F 30.0 °F 30.21 in East 4.0 mph 5.0 mph 56% 0.00 in 0.00 W/m2
03:26 44.7 °F 30.4 °F 30.21 in ESE 7.0 mph 15.0 mph 57% 0.00 in 0.00 W/m2
03:31 44.5 °F 30.2 °F 30.20 in East 8.0 mph 19.0 mph 57% 0.00 in 0.00 W/m2
03:36 44.5 °F 30.2 °F 30.20 in ESE 5.0 mph 15.0 mph 57% 0.00 in 0.00 W/m2
03:41 44.4 °F 30.1 °F 30.20 in ESE 11.0 mph 15.0 mph 57% 0.00 in 0.00 W/m2
03:46 44.3 °F 30.5 °F 30.20 in East 4.0 mph 7.0 mph 58% 0.00 in 0.00 W/m2
03:51 44.2 °F 30.0 °F 30.20 in ESE 14.0 mph 16.0 mph 57% 0.00 in 0.00 W/m2
03:56 44.1 °F 29.0 °F 30.20 in ESE 7.0 mph 18.0 mph 55% 0.00 in 0.00 W/m2
04:01 44.2 °F 30.0 °F 30.20 in East 6.0 mph 6.0 mph 57% 0.00 in 0.00 W/m2
04:06 44.2 °F 29.5 °F 30.20 in ESE 9.0 mph 18.0 mph 56% 0.00 in 0.00 W/m2
04:11 44.2 °F 30.0 °F 30.20 in ESE 6.0 mph 15.0 mph 57% 0.00 in 0.00 W/m2
04:16 44.3 °F 29.2 °F 30.20 in East 15.0 mph 15.0 mph 55% 0.00 in 0.00 W/m2
04:21 44.3 °F 29.6 °F 30.20 in ESE 8.0 mph 8.0 mph 56% 0.00 in 0.00 W/m2
04:26 44.3 °F 29.6 °F 30.20 in ESE 6.0 mph 11.0 mph 56% 0.00 in 0.00 W/m2
04:31 44.3 °F 29.6 °F 30.20 in East 9.0 mph 10.0 mph 56% 0.00 in 0.00 W/m2
04:36 44.3 °F 30.0 °F 30.20 in East 5.0 mph 11.0 mph 57% 0.00 in 0.00 W/m2
04:41 44.2 °F 29.5 °F 30.20 in ESE 8.0 mph 13.0 mph 56% 0.00 in 0.00 W/m2
04:46 44.2 °F 30.0 °F 30.20 in East 9.0 mph 15.0 mph 57% 0.00 in 0.00 W/m2
04:51 44.2 °F 30.0 °F 30.20 in ESE 7.0 mph 9.0 mph 57% 0.00 in 0.00 W/m2
04:56 44.2 °F 29.5 °F 30.20 in East 4.0 mph 12.0 mph 56% 0.00 in 0.00 W/m2
05:01 44.1 °F 29.4 °F 30.20 in ESE 13.0 mph 13.0 mph 56% 0.00 in 0.00 W/m2
05:06 44.1 °F 29.0 °F 30.20 in ESE 7.0 mph 13.0 mph 55% 0.00 in 0.00 W/m2
05:11 44.1 °F 29.0 °F 30.20 in East 9.0 mph 16.0 mph 55% 0.00 in 0.00 W/m2
05:21 44.0 °F 29.8 °F 30.20 in ESE 6.0 mph 12.0 mph 57% 0.00 in 0.00 W/m2
05:26 44.0 °F 28.9 °F 30.19 in East 7.0 mph 13.0 mph 55% 0.00 in 0.00 W/m2
05:32 44.0 °F 29.3 °F 30.20 in East 8.0 mph 11.0 mph 56% 0.00 in 0.00 W/m2
05:37 43.9 °F 29.2 °F 30.20 in ESE 5.0 mph 11.0 mph 56% 0.00 in 0.00 W/m2
05:42 43.9 °F 29.2 °F 30.19 in ESE 8.0 mph 13.0 mph 56% 0.00 in 0.00 W/m2
05:47 43.8 °F 29.1 °F 30.19 in East 13.0 mph 18.0 mph 56% 0.00 in 0.00 W/m2
05:52 43.7 °F 29.5 °F 30.19 in ESE 5.0 mph 17.0 mph 57% 0.00 in 0.00 W/m2
05:57 43.6 °F 29.0 °F 30.19 in ESE 9.0 mph 18.0 mph 56% 0.00 in 0.00 W/m2
06:02 43.6 °F 29.8 °F 30.19 in ESE 12.0 mph 13.0 mph 58% 0.00 in 0.00 W/m2
06:07 43.5 °F 28.9 °F 30.19 in ESE 15.0 mph 16.0 mph 56% 0.00 in 0.00 W/m2
06:12 43.4 °F 28.8 °F 30.19 in ESE 9.0 mph 14.0 mph 56% 0.00 in 0.00 W/m2
06:17 43.4 °F 29.2 °F 30.19 in East 6.0 mph 12.0 mph 57% 0.00 in 0.00 W/m2
06:22 43.4 °F 28.8 °F 30.19 in East 13.0 mph 19.0 mph 56% 0.00 in 0.00 W/m2
06:27 43.4 °F 28.3 °F 30.19 in ESE 8.0 mph 12.0 mph 55% 0.00 in 0.00 W/m2
06:32 43.5 °F 28.9 °F 30.19 in East 6.0 mph 19.0 mph 56% 0.00 in 0.00 W/m2
06:37 43.5 °F 28.9 °F 30.19 in ESE 8.0 mph 14.0 mph 56% 0.00 in 0.00 W/m2
06:42 43.6 °F 28.1 °F 30.19 in East 9.0 mph 13.0 mph 54% 0.00 in 0.00 W/m2
06:47 43.5 °F 28.9 °F 30.19 in ESE 8.0 mph 12.0 mph 56% 0.00 in 0.00 W/m2
06:52 43.6 °F 28.5 °F 30.19 in Calm   17.0 mph 55% 0.00 in 0.00 W/m2
06:57 43.6 °F 29.0 °F 30.19 in East 4.0 mph 12.0 mph 56% 0.00 in 0.00 W/m2
07:02 43.5 °F 28.9 °F 30.19 in Calm   14.0 mph 56% 0.00 in 0.00 W/m2
07:07 43.5 °F 28.9 °F 30.19 in ESE 6.0 mph 11.0 mph 56% 0.00 in 5.00 W/m2
07:12 43.4 °F 28.8 °F 30.19 in ESE 8.0 mph 13.0 mph 56% 0.00 in 5.00 W/m2
07:17 43.4 °F 28.8 °F 30.19 in ESE 9.0 mph 12.0 mph 56% 0.00 in 7.00 W/m2
07:22 43.3 °F 28.7 °F 30.19 in ESE 5.0 mph 18.0 mph 56% 0.00 in 9.00 W/m2
07:28 43.2 °F 28.1 °F 30.19 in ESE 7.0 mph 16.0 mph 55% 0.00 in 12.00 W/m2
07:33 43.2 °F 28.6 °F 30.19 in ESE 7.0 mph 18.0 mph 56% 0.00 in 18.00 W/m2
07:38 43.2 °F 28.1 °F 30.19 in ESE 6.0 mph 15.0 mph 55% 0.00 in 28.00 W/m2
07:43 43.2 °F 27.7 °F 30.19 in ESE 11.0 mph 18.0 mph 54% 0.00 in 37.00 W/m2
07:48 43.3 °F 28.2 °F 30.19 in East 6.0 mph 18.0 mph 55% 0.00 in 56.00 W/m2
07:53 43.4 °F 27.9 °F 30.19 in East 5.0 mph 15.0 mph 54% 0.00 in 63.00 W/m2
07:58 43.6 °F 28.5 °F 30.19 in ESE 8.0 mph 20.0 mph 55% 0.00 in 84.00 W/m2
08:03 43.7 °F 27.7 °F 30.19 in ESE 18.0 mph 18.0 mph 53% 0.00 in 98.00 W/m2
08:08 43.8 °F 28.2 °F 30.19 in East 13.0 mph 16.0 mph 54% 0.00 in 125.00 W/m2
08:13 44.1 °F 28.1 °F 30.19 in ESE 11.0 mph 15.0 mph 53% 0.00 in 149.00 W/m2
08:18 44.3 °F 28.7 °F 30.19 in Calm   16.0 mph 54% 0.00 in 171.00 W/m2
08:23 44.5 °F 28.5 °F 30.19 in SE 8.0 mph 13.0 mph 53% 0.00 in 192.00 W/m2
08:28 44.7 °F 28.6 °F 30.19 in East 5.0 mph 16.0 mph 53% 0.00 in 213.00 W/m2
08:33 44.9 °F 28.4 °F 30.19 in ESE 12.0 mph 12.0 mph 52% 0.00 in 241.00 W/m2
08:38 45.1 °F 28.5 °F 30.19 in ESE 9.0 mph 14.0 mph 52% 0.00 in 260.00 W/m2
08:43 45.4 °F 29.3 °F 30.19 in Calm   11.0 mph 53% 0.00 in 272.00 W/m2
08:48 45.6 °F 30.4 °F 30.19 in Calm   13.0 mph 55% 0.00 in 294.00 W/m2
08:53 45.8 °F 30.1 °F 30.19 in East 1.0 mph 13.0 mph 54% 0.00 in 304.00 W/m2
08:58 46.0 °F 29.4 °F 30.19 in East 5.0 mph 12.0 mph 52% 0.00 in 339.00 W/m2
09:03 46.3 °F 29.6 °F 30.19 in East 8.0 mph 13.0 mph 52% 0.00 in 327.00 W/m2
09:08 46.6 °F 29.5 °F 30.19 in ESE 4.0 mph 12.0 mph 51% 0.00 in 359.00 W/m2
09:13 46.9 °F 30.2 °F 30.20 in ESE 1.0 mph 6.0 mph 52% 0.00 in 394.00 W/m2
09:19 47.2 °F 31.0 °F 30.20 in ESE 4.0 mph 9.0 mph 53% 0.00 in 403.00 W/m2
09:24 47.5 °F 30.8 °F 30.20 in Calm   14.0 mph 52% 0.00 in 410.00 W/m2
09:29 47.8 °F 30.6 °F 30.20 in Calm   2.0 mph 51% 0.00 in 392.00 W/m2
09:34 48.1 °F 31.8 °F 30.20 in Calm   6.0 mph 53% 0.00 in 473.00 W/m2
09:39 48.4 °F 31.6 °F 30.20 in Calm   4.0 mph 52% 0.00 in 496.00 W/m2
09:44 48.7 °F 31.9 °F 30.20 in SE 5.0 mph 5.0 mph 52% 0.00 in 471.00 W/m2
09:49 49.1 °F 31.8 °F 30.20 in Calm   7.0 mph 51% 0.00 in 388.00 W/m2
09:54 49.6 °F 30.7 °F 30.20 in ESE 1.0 mph 7.0 mph 48% 0.00 in 496.00 W/m2
09:59 50.0 °F 31.1 °F 30.20 in ESE 4.0 mph 5.0 mph 48% 0.00 in 295.00 W/m2
10:04 50.4 °F 31.0 °F 30.20 in Calm   5.0 mph 47% 0.00 in 373.00 W/m2
10:09 50.7 °F 32.8 °F 30.20 in Calm   4.0 mph 50% 0.00 in 424.00 W/m2
10:14 51.0 °F 33.5 °F 30.20 in SE 2.0 mph 5.0 mph 51% 0.00 in 517.00 W/m2
10:19 51.2 °F 33.7 °F 30.19 in Calm   4.0 mph 51% 0.00 in 552.00 W/m2
10:24 51.4 °F 31.3 °F 30.19 in Calm   5.0 mph 46% 0.00 in 566.00 W/m2
10:29 51.8 °F 31.7 °F 30.20 in SE 2.0 mph 5.0 mph 46% 0.00 in 591.00 W/m2
10:34 52.1 °F 31.4 °F 30.20 in SE 7.0 mph 7.0 mph 45% 0.00 in 591.00 W/m2
10:39 52.6 °F 30.2 °F 30.19 in ESE 2.0 mph 4.0 mph 42% 0.00 in 610.00 W/m2
10:44 53.3 °F 32.0 °F 30.19 in ESE 4.0 mph 4.0 mph 44% 0.00 in 687.00 W/m2
10:49 53.9 °F 30.1 °F 30.19 in SE 4.0 mph 6.0 mph 40% 0.00 in 577.00 W/m2
10:54 54.4 °F 30.0 °F 30.19 in Calm   4.0 mph 39% 0.00 in 578.00 W/m2
10:59 54.9 °F 32.3 °F 30.19 in SSE 2.0 mph 5.0 mph 42% 0.00 in 529.00 W/m2
11:04 55.3 °F 30.8 °F 30.19 in Calm   4.0 mph 39% 0.00 in 606.00 W/m2
11:09 55.7 °F 31.8 °F 30.19 in SSE 2.0 mph 4.0 mph 40% 0.00 in 657.00 W/m2
11:14 56.0 °F 34.4 °F 30.19 in Calm     44% 0.00 in 670.00 W/m2
11:19 56.4 °F 33.0 °F 30.19 in Calm   2.0 mph 41% 0.00 in 585.00 W/m2
11:25 56.7 °F 35.0 °F 30.19 in Calm   6.0 mph 44% 0.00 in 561.00 W/m2
11:30 56.9 °F 34.7 °F 30.19 in Calm   5.0 mph 43% 0.00 in 670.00 W/m2
11:35 57.2 °F 34.9 °F 30.19 in South 1.0 mph 2.0 mph 43% 0.00 in 705.00 W/m2
11:40 57.5 °F 34.0 °F 30.18 in Calm   6.0 mph 41% 0.00 in 731.00 W/m2
11:45 57.8 °F 34.9 °F 30.18 in SW 3.0 mph 8.0 mph 42% 0.00 in 770.00 W/m2
11:50 58.2 °F 34.6 °F 30.18 in SSW 2.0 mph 3.0 mph 41% 0.00 in 745.00 W/m2
11:55 58.6 °F 32.4 °F 30.17 in South 7.0 mph 9.0 mph 37% 0.00 in 766.00 W/m2
12:00 59.0 °F 32.1 °F 30.17 in SSW 6.0 mph 8.0 mph 36% 0.00 in 773.00 W/m2
12:05 59.3 °F 32.4 °F 30.17 in Calm   7.0 mph 36% 0.00 in 274.00 W/m2
12:10 59.7 °F 34.1 °F 30.17 in South 11.0 mph 11.0 mph 38% 0.00 in 315.00 W/m2
12:15 59.8 °F 31.4 °F 30.17 in SSW 1.0 mph 7.0 mph 34% 0.00 in 865.00 W/m2
12:20 60.0 °F 32.3 °F 30.17 in SSW 1.0 mph 7.0 mph 35% 0.00 in 629.00 W/m2
12:25 60.1 °F 32.4 °F 30.17 in SSW 1.0 mph 2.0 mph 35% 0.00 in 269.00 W/m2
12:30 60.2 °F 31.8 °F 30.17 in Calm   1.0 mph 34% 0.00 in 657.00 W/m2
12:35 60.1 °F 32.4 °F 30.16 in Calm   1.0 mph 35% 0.00 in 290.00 W/m2
12:40 59.9 °F 35.5 °F 30.16 in Calm   1.0 mph 40% 0.00 in 626.00 W/m2
12:45 59.7 °F 34.7 °F 30.16 in Calm   1.0 mph 39% 0.00 in 297.00 W/m2
12:50 59.4 °F 33.8 °F 30.16 in Calm   1.0 mph 38% 0.00 in 251.00 W/m2
12:55 58.9 °F 34.0 °F 30.16 in Calm   1.0 mph 39% 0.00 in 279.00 W/m2
13:00 58.5 °F 34.3 °F 30.16 in Calm   1.0 mph 40% 0.00 in 413.00 W/m2
13:05 58.2 °F 34.0 °F 30.16 in Calm   1.0 mph 40% 0.00 in 534.00 W/m2
13:10 58.0 °F 35.7 °F 30.16 in Calm   1.0 mph 43% 0.00 in 624.00 W/m2
13:16 57.9 °F 34.4 °F 30.15 in Calm     41% 0.00 in 475.00 W/m2
13:21 57.8 °F 36.0 °F 30.15 in Calm     44% 0.00 in 378.00 W/m2
13:26 57.8 °F 36.0 °F 30.15 in Calm     44% 0.00 in 540.00 W/m2
13:31 57.9 °F 35.6 °F 30.15 in Calm     43% 0.00 in 510.00 W/m2
13:36 57.8 °F 35.5 °F 30.15 in Calm     43% 0.00 in 255.00 W/m2
13:41 57.9 °F 35.6 °F 30.15 in Calm     43% 0.00 in 311.00 W/m2
13:46 57.9 °F 36.7 °F 30.15 in Calm     45% 0.00 in 264.00 W/m2
13:51 57.8 °F 36.0 °F 30.14 in Calm     44% 0.00 in 260.00 W/m2
13:56 57.7 °F 35.4 °F 30.14 in Calm     43% 0.00 in 218.00 W/m2
14:01 57.6 °F 35.9 °F 30.14 in Calm     44% 0.00 in 223.00 W/m2
14:06 57.5 °F 36.3 °F 30.14 in Calm     45% 0.00 in 236.00 W/m2
14:11 57.4 °F 36.8 °F 30.14 in Calm     46% 0.00 in 234.00 W/m2
14:16 57.3 °F 37.3 °F 30.13 in Calm     47% 0.00 in 239.00 W/m2
14:21 57.2 °F 38.8 °F 30.13 in Calm     50% 0.00 in 250.00 W/m2
14:26 57.2 °F 39.2 °F 30.13 in Calm     51% 0.00 in 237.00 W/m2
14:31 57.1 °F 37.6 °F 30.13 in Calm     48% 0.00 in 220.00 W/m2
14:36 57.1 °F 39.2 °F 30.13 in Calm     51% 0.00 in 207.00 W/m2
14:41 57.2 °F 37.7 °F 30.13 in Calm     48% 0.00 in 204.00 W/m2
14:46 57.2 °F 37.2 °F 30.13 in Calm     47% 0.00 in 207.00 W/m2
14:51 57.2 °F 36.1 °F 30.13 in Calm     45% 0.00 in 206.00 W/m2
14:56 57.2 °F 35.5 °F 30.13 in Calm     44% 0.00 in 200.00 W/m2
15:01 57.2 °F 37.2 °F 30.13 in Calm     47% 0.00 in 204.00 W/m2
15:06 57.2 °F 37.2 °F 30.12 in Calm     47% 0.00 in 216.00 W/m2
15:11 57.2 °F 38.2 °F 30.13 in Calm     49% 0.00 in 204.00 W/m2
15:16 57.2 °F 40.2 °F 30.12 in Calm     53% 0.00 in 183.00 W/m2
15:21 57.2 °F 38.2 °F 30.13 in Calm     49% 0.00 in 167.00 W/m2
15:26 57.1 °F 39.2 °F 30.13 in Calm     51% 0.00 in 214.00 W/m2
15:31 57.0 °F 39.1 °F 30.13 in Calm     51% 0.00 in 188.00 W/m2
15:36 57.0 °F 38.6 °F 30.12 in Calm     50% 0.00 in 174.00 W/m2
15:41 56.9 °F 38.0 °F 30.12 in Calm     49% 0.00 in 179.00 W/m2
15:46 56.8 °F 38.4 °F 30.12 in Calm     50% 0.00 in 202.00 W/m2
15:51 56.7 °F 39.3 °F 30.12 in Calm     52% 0.00 in 151.00 W/m2
15:56 56.6 °F 37.7 °F 30.12 in Calm     49% 0.00 in 116.00 W/m2
16:01 56.5 °F 38.6 °F 30.12 in Calm     51% 0.00 in 102.00 W/m2
16:06 56.4 °F 39.0 °F 30.12 in Calm     52% 0.00 in 95.00 W/m2
16:11 56.2 °F 37.3 °F 30.12 in Calm     49% 0.00 in 104.00 W/m2
16:16 56.1 °F 39.2 °F 30.12 in Calm     53% 0.00 in 102.00 W/m2
16:21 55.9 °F 38.5 °F 30.12 in Calm     52% 0.00 in 100.00 W/m2
16:26 55.8 °F 39.9 °F 30.12 in Calm     55% 0.00 in 88.00 W/m2
16:31 55.6 °F 39.2 °F 30.12 in Calm     54% 0.00 in 81.00 W/m2
16:36 55.3 °F 40.3 °F 30.12 in Calm     57% 0.00 in 54.00 W/m2
16:41 55.1 °F 39.2 °F 30.12 in Calm     55% 0.00 in 40.00 W/m2
16:46 54.8 °F 39.0 °F 30.11 in Calm     55% 0.00 in 37.00 W/m2
16:51 54.6 °F 40.1 °F 30.11 in Calm     58% 0.00 in 33.00 W/m2
16:56 54.5 °F 41.3 °F 30.11 in Calm     61% 0.00 in 28.00 W/m2
17:01 54.2 °F 41.5 °F 30.11 in Calm     62% 0.00 in 21.00 W/m2
17:06 53.9 °F 41.2 °F 30.11 in Calm     62% 0.00 in 14.00 W/m2
17:11 53.6 °F 41.3 °F 30.11 in Calm     63% 0.00 in 9.00 W/m2
17:16 53.3 °F 41.0 °F 30.11 in Calm     63% 0.00 in 5.00 W/m2
17:21 52.9 °F 40.7 °F 30.11 in Calm     63% 0.00 in 0.00 W/m2
17:26 52.5 °F 39.9 °F 30.11 in Calm   1.0 mph 62% 0.00 in 0.00 W/m2
17:31 52.1 °F 39.9 °F 30.11 in Calm     63% 0.00 in 0.00 W/m2
17:36 51.7 °F 39.5 °F 30.11 in Calm     63% 0.00 in 0.00 W/m2
17:41 51.5 °F 39.7 °F 30.11 in Calm   1.0 mph 64% 0.00 in 0.00 W/m2
17:46 51.4 °F 40.0 °F 30.11 in Calm     65% 0.00 in 0.00 W/m2
17:51 51.2 °F 39.8 °F 30.10 in SE 1.0 mph 1.0 mph 65% 0.00 in 0.00 W/m2
17:56 51.0 °F 40.1 °F 30.10 in Calm   1.0 mph 66% 0.00 in 0.00 W/m2
18:02 50.9 °F 40.0 °F 30.11 in Calm   1.0 mph 66% 0.00 in 0.00 W/m2
18:07 50.8 °F 40.2 °F 30.11 in Calm   1.0 mph 67% 0.00 in 0.00 W/m2
18:12 50.7 °F 40.2 °F 30.11 in Calm   1.0 mph 67% 0.00 in 0.00 W/m2
18:17 50.6 °F 40.4 °F 30.11 in Calm   1.0 mph 68% 0.00 in 0.00 W/m2
18:22 50.5 °F 40.7 °F 30.10 in SE 1.0 mph 1.0 mph 69% 0.00 in 0.00 W/m2
18:27 50.4 °F 40.2 °F 30.10 in Calm   1.0 mph 68% 0.00 in 0.00 W/m2
18:32 50.3 °F 40.2 °F 30.10 in SE 1.0 mph 1.0 mph 68% 0.00 in 0.00 W/m2
18:37 50.3 °F 40.5 °F 30.11 in Calm     69% 0.00 in 0.00 W/m2
18:42 50.3 °F 40.5 °F 30.11 in Calm     69% 0.00 in 0.00 W/m2
18:47 50.2 °F 40.4 °F 30.11 in Calm     69% 0.00 in 0.00 W/m2
18:52 50.0 °F 40.2 °F 30.11 in Calm     69% 0.00 in 0.00 W/m2
18:57 49.9 °F 40.5 °F 30.10 in Calm     70% 0.00 in 0.00 W/m2
19:02 49.9 °F 40.9 °F 30.10 in Calm     71% 0.00 in 0.00 W/m2
19:07 49.7 °F 40.3 °F 30.10 in Calm     70% 0.00 in 0.00 W/m2
19:12 49.5 °F 40.1 °F 30.10 in Calm     70% 0.00 in 0.00 W/m2
19:17 49.4 °F 40.0 °F 30.10 in Calm     70% 0.00 in 0.00 W/m2
19:22 49.2 °F 40.2 °F 30.10 in Calm     71% 0.00 in 0.00 W/m2
19:27 49.0 °F 39.7 °F 30.11 in Calm     70% 0.00 in 0.00 W/m2
19:32 48.9 °F 39.6 °F 30.10 in Calm     70% 0.00 in 0.00 W/m2
19:37 48.8 °F 39.5 °F 30.10 in Calm     70% 0.00 in 0.00 W/m2
19:42 48.7 °F 39.4 °F 30.10 in Calm     70% 0.00 in 0.00 W/m2
19:47 48.7 °F 39.4 °F 30.10 in Calm     70% 0.00 in 0.00 W/m2
19:52 48.7 °F 39.4 °F 30.10 in Calm     70% 0.00 in 0.00 W/m2
19:57 48.7 °F 39.4 °F 30.10 in Calm     70% 0.00 in 0.00 W/m2
20:02 48.7 °F 39.4 °F 30.10 in SE 1.0 mph 1.0 mph 70% 0.00 in 0.00 W/m2
20:07 48.6 °F 39.3 °F 30.10 in ESE 1.0 mph 1.0 mph 70% 0.00 in 0.00 W/m2
20:12 48.5 °F 38.4 °F 30.10 in ESE 1.0 mph 1.0 mph 68% 0.00 in 0.00 W/m2
20:18 48.4 °F 38.3 °F 30.11 in Calm   1.0 mph 68% 0.00 in 0.00 W/m2
20:23 48.3 °F 38.2 °F 30.11 in Calm   1.0 mph 68% 0.00 in 0.00 W/m2
20:28 48.3 °F 38.2 °F 30.11 in Calm   1.0 mph 68% 0.00 in 0.00 W/m2
20:33 48.2 °F 38.2 °F 30.11 in Calm   1.0 mph 68% 0.00 in 0.00 W/m2
20:38 48.2 °F 37.8 °F 30.11 in Calm   1.0 mph 67% 0.00 in 0.00 W/m2
20:43 48.1 °F 38.0 °F 30.11 in Calm   2.0 mph 68% 0.00 in 0.00 W/m2
20:48 48.0 °F 37.6 °F 30.11 in ESE 1.0 mph 1.0 mph 67% 0.00 in 0.00 W/m2
20:53 47.8 °F 37.0 °F 30.11 in Calm   1.0 mph 66% 0.00 in 0.00 W/m2
20:58 47.8 °F 37.0 °F 30.11 in Calm   2.0 mph 66% 0.00 in 0.00 W/m2
21:03 47.7 °F 36.5 °F 30.12 in ESE 1.0 mph 4.0 mph 65% 0.00 in 0.00 W/m2
21:08 47.6 °F 36.0 °F 30.12 in Calm   4.0 mph 64% 0.00 in 0.00 W/m2
21:13 47.6 °F 36.4 °F 30.12 in East 1.0 mph 4.0 mph 65% 0.00 in 0.00 W/m2
21:18 47.4 °F 35.8 °F 30.12 in East 12.0 mph 12.0 mph 64% 0.00 in 0.00 W/m2
21:23 47.3 °F 35.4 °F 30.12 in East 12.0 mph 14.0 mph 63% 0.00 in 0.00 W/m2
21:28 47.2 °F 35.3 °F 30.12 in Calm   12.0 mph 63% 0.00 in 0.00 W/m2
21:33 47.1 °F 35.2 °F 30.12 in Calm   7.0 mph 63% 0.00 in 0.00 W/m2
21:38 47.0 °F 35.1 °F 30.12 in East 2.0 mph 6.0 mph 63% 0.00 in 0.00 W/m2
21:43 46.9 °F 35.0 °F 30.11 in Calm   16.0 mph 63% 0.00 in 0.00 W/m2
21:48 46.8 °F 34.9 °F 30.11 in ESE 8.0 mph 12.0 mph 63% 0.00 in 0.00 W/m2
21:53 46.6 °F 33.9 °F 30.11 in SE 4.0 mph 16.0 mph 61% 0.00 in 0.00 W/m2
21:58 46.5 °F 33.8 °F 30.11 in East 8.0 mph 12.0 mph 61% 0.00 in 0.00 W/m2
22:03 46.5 °F 33.8 °F 30.10 in ESE 2.0 mph 16.0 mph 61% 0.00 in 0.00 W/m2
22:08 46.4 °F 33.3 °F 30.10 in Calm   14.0 mph 60% 0.00 in 0.00 W/m2
22:13 46.5 °F 33.8 °F 30.11 in Calm   15.0 mph 61% 0.00 in 0.00 W/m2
22:18 46.4 °F 32.9 °F 30.11 in ESE 6.0 mph 14.0 mph 59% 0.00 in 0.00 W/m2
22:23 46.4 °F 32.9 °F 30.11 in ESE 8.0 mph 12.0 mph 59% 0.00 in 0.00 W/m2
22:28 46.5 °F 32.5 °F 30.11 in ESE 5.0 mph 14.0 mph 58% 0.00 in 0.00 W/m2
22:33 46.5 °F 32.1 °F 30.11 in Calm   15.0 mph 57% 0.00 in 0.00 W/m2
22:38 46.5 °F 32.5 °F 30.11 in ESE 11.0 mph 13.0 mph 58% 0.00 in 0.00 W/m2
22:43 46.4 °F 32.0 °F 30.11 in Calm   12.0 mph 57% 0.00 in 0.00 W/m2
22:48 46.4 °F 32.9 °F 30.11 in Calm   9.0 mph 59% 0.00 in 0.00 W/m2
22:53 46.3 °F 32.3 °F 30.11 in ESE 8.0 mph 8.0 mph 58% 0.00 in 0.00 W/m2
22:58 46.3 °F 32.3 °F 30.11 in East 1.0 mph 8.0 mph 58% 0.00 in 0.00 W/m2
23:03 46.2 °F 32.7 °F 30.12 in Calm   8.0 mph 59% 0.00 in 0.00 W/m2
23:08 46.2 °F 32.7 °F 30.12 in Calm   2.0 mph 59% 0.00 in 0.00 W/m2
23:13 46.1 °F 33.0 °F 30.12 in Calm   1.0 mph 60% 0.00 in 0.00 W/m2
23:18 46.0 °F 32.9 °F 30.11 in ESE 1.0 mph 1.0 mph 60% 0.00 in 0.00 W/m2
23:23 45.9 °F 32.8 °F 30.11 in ESE 1.0 mph 1.0 mph 60% 0.00 in 0.00 W/m2
23:29 45.8 °F 32.7 °F 30.11 in Calm   5.0 mph 60% 0.00 in 0.00 W/m2
23:34 45.7 °F 32.6 °F 30.11 in Calm   9.0 mph 60% 0.00 in 0.00 W/m2
23:39 45.6 °F 33.3 °F 30.11 in Calm   7.0 mph 62% 0.00 in 0.00 W/m2
23:44 45.5 °F 32.8 °F 30.11 in Calm   9.0 mph 61% 0.00 in 0.00 W/m2
23:49 45.5 °F 33.2 °F 30.11 in Calm   2.0 mph 62% 0.00 in 0.00 W/m2
23:54 45.4 °F 32.8 °F 30.10 in Calm   15.0 mph 61% 0.00 in 0.00 W/m2
23:59 45.4 °F 32.8 °F 30.10 in Calm   9.0 mph 61% 0.00 in 0.00 W/m2
Foresthill Weather
 WU-history PHP script courtesy of   Juneau County Weather.
powered by Cumulus v1.9.3 (1059)
Ambient Weather VWS v14.00
Top Contact Website Map Copyright © 2007 - 2018 Foresthillweather.com Never base important decisions on this or any weather information obtained from the Internet